Time;durP1;ratioP1;P1;durP2;ratioP2;P2;SDS_P1;SDS_P2;PMS_P1;PMS_P2;Temp;Humidity;BMP_temperature;BMP_pressure;BME280_temperature;BME280_humidity;BME280_pressure;Samples;Min_cycle;Max_cycle;Signal;HPM_P1;HPM_P2
2021/09/23 00:00:44;;;;;;;25.75;17.15;;;;;;;10.08;76.98;100349.56;255062;1104;182639;-69
2021/09/23 00:05:48;;;;;;;26.53;17.75;;;;;;;10.01;76.66;100349.61;255982;1103;115811;-69
2021/09/23 00:10:51;;;;;;;25.10;16.17;;;;;;;10.07;76.66;100347.93;257420;1104;115092;-68
2021/09/23 00:15:56;;;;;;;22.98;18.53;;;;;;;10.04;76.50;100337.70;256017;1104;115776;-68
2021/09/23 00:21:02;;;;;;;28.90;21.40;;;;;;;10.05;76.56;100323.36;254530;1104;116817;-67
2021/09/23 00:26:06;;;;;;;30.45;19.10;;;;;;;10.05;77.01;100323.36;255917;1104;115766;-67
2021/09/23 00:31:09;;;;;;;33.18;21.05;;;;;;;10.01;76.63;100311.50;255595;1104;116010;-68
2021/09/23 00:36:12;;;;;;;31.00;20.98;;;;;;;9.98;76.44;100302.09;254609;1104;137433;-67
2021/09/23 00:41:16;;;;;;;28.03;19.33;;;;;;;9.97;77.24;100281.81;254501;1104;116958;-68
2021/09/23 00:46:19;;;;;;;31.78;22.43;;;;;;;9.95;77.13;100285.73;255214;1098;115531;-67
2021/09/23 00:51:22;;;;;;;30.23;22.40;;;;;;;9.88;77.22;100290.28;254229;1104;115417;-68
2021/09/23 00:56:26;;;;;;;34.70;21.30;;;;;;;9.86;77.34;100279.03;254869;1104;115672;-67
2021/09/23 01:01:30;;;;;;;32.80;21.08;;;;;;;9.85;77.18;100274.73;255175;1103;115551;-69
2021/09/23 01:06:34;;;;;;;31.20;20.98;;;;;;;9.88;77.17;100268.98;254647;1100;115156;-69
2021/09/23 01:11:37;;;;;;;29.68;21.60;;;;;;;9.85;77.15;100256.09;253930;1103;115169;-67
2021/09/23 01:16:39;;;;;;;35.70;22.58;;;;;;;9.84;77.47;100233.16;253740;1104;115437;-67
2021/09/23 01:21:43;;;;;;;36.28;24.28;;;;;;;9.80;77.64;100222.95;255375;1104;116268;-67
2021/09/23 01:26:49;;;;;;;34.55;22.03;;;;;;;9.83;77.96;100210.23;253830;1104;115197;-67
2021/09/23 01:31:54;;;;;;;35.60;22.50;;;;;;;9.79;77.45;100205.34;253931;1103;115813;-68
2021/09/23 01:36:58;;;;;;;32.90;22.05;;;;;;;9.78;77.59;100225.01;255046;1104;116268;-68
2021/09/23 01:42:00;;;;;;;53.28;22.85;;;;;;;9.83;78.13;100223.55;255717;1104;116314;-68
2021/09/23 01:47:04;;;;;;;34.65;22.33;;;;;;;9.89;78.60;100212.03;255310;1104;114966;-68
2021/09/23 01:52:07;;;;;;;26.18;18.43;;;;;;;9.90;78.46;100211.00;255255;1104;115781;-67
2021/09/23 01:57:11;;;;;;;30.13;19.05;;;;;;;9.96;78.40;100212.80;254660;1104;115583;-68
2021/09/23 02:02:15;;;;;;;28.73;19.48;;;;;;;10.00;78.59;100203.34;254694;1104;115649;-67
2021/09/23 02:07:18;;;;;;;31.18;21.60;;;;;;;10.03;78.76;100205.56;257201;1104;115932;-68
2021/09/23 02:12:22;;;;;;;26.20;19.08;;;;;;;10.08;78.50;100203.06;257226;1103;115866;-68
2021/09/23 02:17:27;;;;;;;29.20;20.60;;;;;;;10.14;78.58;100210.14;257404;1104;116065;-67
2021/09/23 02:22:32;;;;;;;32.40;20.38;;;;;;;10.21;78.56;100194.95;257240;1104;116932;-68
2021/09/23 02:27:36;;;;;;;22.88;15.90;;;;;;;10.26;78.46;100197.77;254969;1104;116982;-67
2021/09/23 02:32:39;;;;;;;33.75;18.78;;;;;;;10.23;79.05;100190.21;254354;1104;116806;-67
2021/09/23 02:37:41;;;;;;;26.25;19.05;;;;;;;10.21;78.64;100192.28;255677;1104;116382;-67
2021/09/23 02:42:45;;;;;;;25.48;17.98;;;;;;;10.21;79.05;100196.80;255083;1104;116554;-67
2021/09/23 02:47:48;;;;;;;30.93;18.08;;;;;;;10.27;79.32;100187.92;254748;1104;117377;-67
2021/09/23 02:52:53;;;;;;;27.63;18.75;;;;;;;10.24;79.39;100183.03;256067;1104;116897;-67
2021/09/23 02:57:57;;;;;;;26.87;18.87;;;;;;;10.28;79.42;100165.58;253898;1104;116341;-66
2021/09/23 03:03:01;;;;;;;29.15;17.75;;;;;;;10.34;79.67;100152.19;254087;1104;116085;-66
2021/09/23 03:08:05;;;;;;;27.30;18.80;;;;;;;10.38;79.73;100142.70;254221;1104;115812;-66
2021/09/23 03:13:08;;;;;;;24.15;16.15;;;;;;;10.45;80.28;100138.09;254218;1104;116041;-67
2021/09/23 03:18:11;;;;;;;23.15;16.23;;;;;;;10.51;79.89;100128.39;255100;1104;116447;-67
2021/09/23 03:23:14;;;;;;;19.23;14.87;;;;;;;10.51;80.03;100130.23;254293;1104;116033;-67
2021/09/23 03:28:19;;;;;;;29.23;17.78;;;;;;;10.54;80.05;100132.45;255503;1104;115928;-67
2021/09/23 03:33:23;;;;;;;25.23;16.73;;;;;;;10.59;79.88;100113.94;254514;1104;115649;-66
2021/09/23 03:38:26;;;;;;;23.80;15.63;;;;;;;10.66;80.26;100107.48;254601;1104;116192;-66
2021/09/23 03:43:29;;;;;;;20.45;15.10;;;;;;;10.71;79.78;100093.45;254911;1104;115307;-66
2021/09/23 03:48:32;;;;;;;22.40;15.20;;;;;;;10.74;80.35;100087.67;254033;1104;115189;-67
2021/09/23 03:53:38;;;;;;;22.50;15.27;;;;;;;10.80;80.36;100082.25;253918;1099;115604;-66
2021/09/23 03:58:43;;;;;;;17.48;12.45;;;;;;;10.77;79.96;100065.89;253943;1104;116667;-68
2021/09/23 04:03:45;;;;;;;32.30;16.40;;;;;;;10.75;80.34;100051.97;255032;1104;115703;-68
2021/09/23 04:08:49;;;;;;;18.25;12.55;;;;;;;10.74;80.42;100053.82;256337;1104;115680;-66
2021/09/23 04:13:54;;;;;;;17.43;12.78;;;;;;;10.73;80.35;100065.52;257074;1103;115760;-66
2021/09/23 04:18:58;;;;;;;20.52;13.20;;;;;;;10.73;80.14;100060.20;257122;1104;115693;-66
2021/09/23 04:24:01;;;;;;;17.33;12.38;;;;;;;10.82;80.38;100058.02;256378;1100;115717;-66
2021/09/23 04:29:04;;;;;;;19.88;13.18;;;;;;;10.88;80.32;100067.78;257215;1104;115896;-69
2021/09/23 04:34:07;;;;;;;19.88;13.60;;;;;;;10.84;80.33;100058.61;255544;1104;115893;-66
2021/09/23 04:39:10;;;;;;;18.00;13.50;;;;;;;10.84;80.08;100049.80;254629;1104;116663;-68
2021/09/23 04:44:12;;;;;;;16.50;11.83;;;;;;;10.84;80.13;100039.13;254888;1104;115926;-68
2021/09/23 04:49:15;;;;;;;18.40;12.53;;;;;;;10.85;80.61;100030.91;253729;1104;116477;-68
2021/09/23 04:54:18;;;;;;;15.50;11.95;;;;;;;10.90;80.66;100030.22;254884;1104;116293;-68
2021/09/23 04:59:21;;;;;;;21.17;15.27;;;;;;;10.89;80.75;100018.73;253815;1104;115883;-68
2021/09/23 05:04:24;;;;;;;18.55;13.23;;;;;;;10.93;80.73;100003.09;254169;1104;115344;-68
2021/09/23 05:09:30;;;;;;;26.48;12.90;;;;;;;10.99;80.66;100007.52;253783;1104;115770;-68
2021/09/23 05:14:34;;;;;;;17.73;11.83;;;;;;;11.07;80.79;99999.95;255103;1104;115752;-68
2021/09/23 05:19:38;;;;;;;18.88;12.20;;;;;;;11.10;80.85;100002.16;254268;1104;115329;-68
2021/09/23 05:24:47;;;;;;;18.30;11.10;;;;;;;11.14;80.46;100003.33;254921;1098;118237;-68
2021/09/23 05:29:51;;;;;;;15.03;10.73;;;;;;;11.19;80.67;99999.16;253949;1104;115941;-67
2021/09/23 05:34:55;;;;;;;16.10;11.93;;;;;;;11.20;80.93;99995.45;254113;1104;115561;-68
2021/09/23 05:39:59;;;;;;;19.47;10.20;;;;;;;11.37;80.86;99999.83;253653;1104;115173;-68
2021/09/23 05:45:06;;;;;;;17.35;10.63;;;;;;;11.68;80.69;100005.83;254599;1104;115112;-68
2021/09/23 05:50:12;;;;;;;16.43;9.45;;;;;;;12.01;80.61;99997.18;253830;1104;115733;-67
2021/09/23 05:55:16;;;;;;;16.57;8.20;;;;;;;12.17;80.18;99996.44;254236;1099;115687;-69
2021/09/23 06:00:21;;;;;;;10.73;8.50;;;;;;;12.27;80.36;100001.14;254992;1104;117016;-69
2021/09/23 06:05:26;;;;;;;12.98;7.70;;;;;;;12.17;79.76;100004.46;255250;1104;115300;-67
2021/09/23 06:10:29;;;;;;;15.40;7.08;;;;;;;12.20;79.46;99998.64;256358;1104;115625;-67
2021/09/23 06:15:33;;;;;;;9.58;7.25;;;;;;;12.27;79.36;99991.27;257210;1104;116481;-67
2021/09/23 06:20:37;;;;;;;18.10;8.83;;;;;;;12.42;79.70;100004.92;257275;1103;115584;-67
2021/09/23 06:25:41;;;;;;;16.63;7.55;;;;;;;12.65;79.54;99987.94;257215;1104;115425;-67
2021/09/23 06:30:44;;;;;;;17.50;7.68;;;;;;;12.94;79.20;99980.64;254192;1099;115242;-67
2021/09/23 06:35:47;;;;;;;15.43;8.75;;;;;;;13.22;78.81;99981.61;255986;1104;115570;-67
2021/09/23 06:40:54;;;;;;;10.57;7.07;;;;;;;13.43;78.50;99987.03;255675;1104;115584;-68
2021/09/23 06:45:58;;;;;;;6.78;4.70;;;;;;;13.61;78.66;99983.23;255879;1104;115635;-67
2021/09/23 06:51:01;;;;;;;15.53;5.60;;;;;;;13.56;77.74;99979.67;255035;1104;116064;-67
2021/09/23 06:56:04;;;;;;;16.08;6.50;;;;;;;13.44;77.75;99969.09;254104;1104;115534;-69
2021/09/23 07:01:09;;;;;;;8.23;5.95;;;;;;;13.58;77.73;99950.77;255084;1104;115183;-70
2021/09/23 07:06:14;;;;;;;11.13;7.43;;;;;;;13.81;77.66;99935.25;254323;1104;115074;-67
2021/09/23 07:11:20;;;;;;;16.00;6.38;;;;;;;14.16;78.02;99931.33;253881;1104;115535;-69
2021/09/23 07:16:23;;;;;;;14.53;5.70;;;;;;;14.56;77.10;99932.80;253758;1104;115712;-69
2021/09/23 07:21:27;;;;;;;14.18;6.63;;;;;;;14.85;76.95;99923.36;253784;1100;115944;-67
2021/09/23 07:26:32;;;;;;;13.38;6.20;;;;;;;15.06;76.45;99926.97;254170;1104;116450;-69
2021/09/23 07:31:36;;;;;;;15.53;6.63;;;;;;;15.03;76.35;99922.93;253712;1098;115973;-67
2021/09/23 07:36:41;;;;;;;9.90;4.03;;;;;;;14.96;75.73;99935.80;254177;1104;115699;-68
2021/09/23 07:41:45;;;;;;;10.98;4.95;;;;;;;14.96;75.19;99927.73;254077;1104;114789;-67
2021/09/23 07:46:49;;;;;;;11.97;7.10;;;;;;;14.86;75.18;99922.29;254073;1104;116199;-68
2021/09/23 07:51:54;;;;;;;18.00;5.98;;;;;;;14.94;75.46;99921.01;254333;1104;115506;-68
2021/09/23 07:56:58;;;;;;;16.43;5.68;;;;;;;15.17;75.34;99920.61;254762;1104;115833;-68
2021/09/23 08:02:03;;;;;;;11.10;6.58;;;;;;;15.41;75.63;99918.30;254732;1104;116957;-68
2021/09/23 08:07:06;;;;;;;12.86;5.46;;;;;;;15.59;75.21;99917.89;257119;1104;116552;-68
2021/09/23 08:12:09;;;;;;;10.08;5.23;;;;;;;15.88;74.80;99917.44;256046;1104;116184;-68
2021/09/23 08:17:13;;;;;;;4.10;3.38;;;;;;;16.03;74.30;99901.33;256044;1100;116203;-68
2021/09/23 08:22:16;;;;;;;8.28;4.95;;;;;;;16.08;74.14;99890.58;257284;1104;116513;-69
2021/09/23 08:27:20;;;;;;;8.00;4.13;;;;;;;16.11;73.83;99895.44;257265;1104;114851;-69
2021/09/23 08:32:23;;;;;;;8.75;5.08;;;;;;;16.11;73.53;99887.37;256603;1104;115407;-68
2021/09/23 08:37:27;;;;;;;8.77;4.50;;;;;;;16.10;73.09;99888.44;257176;1104;115162;-69
2021/09/23 08:42:30;;;;;;;12.00;5.77;;;;;;;16.08;73.26;99879.83;255219;1104;115004;-68
2021/09/23 08:47:34;;;;;;;8.93;5.78;;;;;;;16.00;72.74;99867.71;255749;1104;115122;-68
2021/09/23 08:52:40;;;;;;;7.33;6.15;;;;;;;15.91;72.65;99863.92;253849;1104;115015;-68
2021/09/23 08:57:44;;;;;;;9.80;6.18;;;;;;;15.81;72.48;99867.42;255133;1104;115032;-68
2021/09/23 09:03:07;;;;;;;8.48;4.40;;;;;;;15.74;72.37;99847.23;255690;1104;116209;-67
2021/09/23 09:08:11;;;;;;;5.85;4.33;;;;;;;15.73;72.94;99840.25;253982;1104;116109;-68
2021/09/23 09:13:15;;;;;;;10.20;6.90;;;;;;;15.69;72.49;99823.84;254635;1104;115282;-68
2021/09/23 09:18:23;;;;;;;11.40;7.07;;;;;;;15.77;72.61;99799.14;254580;1104;115798;-68
2021/09/23 09:23:51;;;;;;;8.53;6.33;;;;;;;15.88;72.79;99794.59;254226;1104;115128;-68
2021/09/23 09:28:57;;;;;;;15.55;6.90;;;;;;;16.04;72.87;99781.95;254333;1104;115302;-68
2021/09/23 09:34:04;;;;;;;14.95;5.85;;;;;;;16.20;72.72;99758.55;255007;1104;116445;-68
2021/09/23 09:39:19;;;;;;;8.43;5.75;;;;;;;16.31;72.48;99747.49;254207;1104;116200;-67
2021/09/23 09:44:22;;;;;;;12.43;5.10;;;;;;;16.24;72.18;99738.89;254577;1104;116600;-68
2021/09/23 09:49:31;;;;;;;7.33;5.13;;;;;;;16.17;71.81;99743.77;255109;1099;115926;-67
2021/09/23 09:54:34;;;;;;;15.90;6.73;;;;;;;16.06;71.89;99753.71;253922;1104;115838;-70
2021/09/23 09:59:37;;;;;;;8.03;6.37;;;;;;;16.07;71.83;99738.39;253803;1104;116047;-68
2021/09/23 10:04:42;;;;;;;11.93;6.80;;;;;;;16.08;71.84;99745.38;254926;1104;115568;-68
2021/09/23 10:09:48;;;;;;;16.70;6.80;;;;;;;16.00;71.82;99729.78;254913;1104;116866;-67
2021/09/23 10:14:52;;;;;;;;;;;;;;;15.97;71.70;99703.44;256533;1104;115733;-68
2021/09/23 10:19:58;;;;;;;13.12;5.78;;;;;;;15.80;71.72;99703.73;257756;1103;102179;-68
2021/09/23 10:25:05;;;;;;;8.03;5.93;;;;;;;15.76;71.87;99700.77;255504;1103;116364;-68
2021/09/23 10:30:10;;;;;;;24.33;6.80;;;;;;;15.91;71.98;99697.25;257084;1104;115628;-69
2021/09/23 10:35:22;;;;;;;8.50;6.25;;;;;;;16.11;71.90;99693.75;257191;1104;116084;-68
2021/09/23 10:40:27;;;;;;;9.80;6.15;;;;;;;16.23;71.05;99670.03;255576;1104;115705;-67
2021/09/23 10:45:34;;;;;;;16.15;7.43;;;;;;;16.34;71.83;99662.75;255577;1104;115829;-67
2021/09/23 10:50:40;;;;;;;10.98;7.33;;;;;;;16.37;71.50;99641.48;255791;1104;116330;-68
2021/09/23 10:55:45;;;;;;;12.47;6.57;;;;;;;16.37;71.16;99636.11;255986;1104;115534;-68
2021/09/23 11:00:49;;;;;;;10.03;7.43;;;;;;;16.37;71.40;99630.73;253818;1099;115335;-67
2021/09/23 11:05:55;;;;;;;12.20;6.08;;;;;;;16.44;71.19;99630.44;254624;1104;115578;-68
2021/09/23 11:11:00;;;;;;;12.48;6.55;;;;;;;16.60;71.32;99633.85;254359;1099;115949;-68
2021/09/23 11:16:05;;;;;;;8.08;6.28;;;;;;;16.72;71.20;99632.48;254330;1099;115249;-67
2021/09/23 11:21:09;;;;;;;22.03;6.30;;;;;;;16.86;71.01;99611.13;253775;1104;115404;-70
2021/09/23 11:26:14;;;;;;;13.53;6.40;;;;;;;17.10;71.02;99595.09;254618;1104;115594;-68
2021/09/23 11:31:18;;;;;;;9.30;5.18;;;;;;;17.20;70.57;99589.61;254099;1104;115626;-68
2021/09/23 11:36:25;;;;;;;7.95;5.38;;;;;;;17.41;70.55;99574.91;254231;1104;115942;-68
2021/09/23 11:41:28;;;;;;;10.85;7.23;;;;;;;17.69;70.38;99567.12;254824;1104;115700;-68
2021/09/23 11:46:33;;;;;;;7.68;5.98;;;;;;;18.06;70.00;99553.73;253910;1104;115887;-68
2021/09/23 11:51:41;;;;;;;11.18;6.88;;;;;;;18.39;69.90;99546.56;254667;1104;115613;-68
2021/09/23 11:56:44;;;;;;;7.55;5.35;;;;;;;18.49;68.68;99537.53;256097;1104;115144;-69
2021/09/23 12:01:47;;;;;;;9.48;7.25;;;;;;;18.59;68.63;99539.30;254637;1104;115377;-68
2021/09/23 12:07:06;;;;;;;10.10;7.05;;;;;;;18.55;67.69;99530.17;254035;1104;115818;-68
2021/09/23 12:12:10;;;;;;;9.13;6.85;;;;;;;18.45;67.37;99526.52;255899;1104;119454;-69
2021/09/23 12:17:15;;;;;;;11.57;6.93;;;;;;;18.38;67.18;99517.97;254057;1100;116137;-68
2021/09/23 12:22:36;;;;;;;8.48;7.50;;;;;;;18.20;67.14;99507.98;255408;1104;115900;-68
2021/09/23 12:27:41;;;;;;;9.33;6.78;;;;;;;18.00;67.09;99494.77;254398;1104;116708;-68
2021/09/23 12:32:44;;;;;;;10.28;6.63;;;;;;;17.82;67.28;99475.55;257113;1104;116632;-69
2021/09/23 12:37:49;;;;;;;8.63;6.67;;;;;;;17.62;67.18;99494.64;254371;1104;117168;-68
2021/09/23 12:42:53;;;;;;;7.45;6.65;;;;;;;17.45;67.24;99457.35;256155;1104;114791;-69
2021/09/23 12:47:56;;;;;;;6.18;4.25;;;;;;;17.40;67.56;99443.16;255112;1100;115338;-68
2021/09/23 12:52:59;;;;;;;10.55;7.08;;;;;;;17.40;67.70;99433.18;254856;1104;115308;-69
2021/09/23 12:58:04;;;;;;;8.08;6.10;;;;;;;17.39;67.58;99414.61;254536;1104;115501;-70
2021/09/23 13:03:13;;;;;;;8.98;5.85;;;;;;;17.40;67.71;99408.13;254379;1104;115858;-69
2021/09/23 13:08:27;;;;;;;7.90;6.43;;;;;;;17.39;67.64;99406.52;253908;1104;116555;-68
2021/09/23 13:13:31;;;;;;;12.25;6.58;;;;;;;17.43;67.61;99391.36;254453;1104;116652;-68
2021/09/23 13:18:35;;;;;;;5.95;5.35;;;;;;;17.46;67.40;99382.70;255571;1104;115635;-68
2021/09/23 13:23:42;;;;;;;6.60;5.80;;;;;;;17.43;67.28;99383.27;253932;1104;114916;-67
2021/09/23 13:28:48;;;;;;;5.08;4.63;;;;;;;17.39;67.32;99374.99;255464;1103;115281;-68
2021/09/23 13:33:54;;;;;;;7.65;6.38;;;;;;;17.37;67.25;99365.59;253921;1099;115020;-70
2021/09/23 13:39:04;;;;;;;11.03;5.45;;;;;;;17.38;67.16;99369.89;253652;1104;115290;-68
2021/09/23 13:44:08;;;;;;;6.48;5.80;;;;;;;17.35;67.22;99354.30;254369;1104;115230;-69
2021/09/23 13:49:15;;;;;;;5.70;5.00;;;;;;;17.33;67.20;99337.62;255194;1104;115114;-69
2021/09/23 13:54:18;;;;;;;9.15;6.25;;;;;;;17.28;67.18;99334.98;254176;1104;115495;-69
2021/09/23 13:59:26;;;;;;;9.60;5.58;;;;;;;17.23;67.16;99325.06;255207;1100;116311;-68
2021/09/23 14:04:30;;;;;;;6.40;5.45;;;;;;;17.23;67.24;99330.45;254792;1104;114572;-68
2021/09/23 14:09:35;;;;;;;4.45;3.03;;;;;;;17.22;67.07;99312.69;253973;1104;115707;-67
2021/09/23 14:14:40;;;;;;;7.85;6.45;;;;;;;17.23;67.00;99297.33;253924;1104;115674;-68
2021/09/23 14:19:43;;;;;;;8.47;4.93;;;;;;;17.25;66.81;99297.84;253780;1104;115325;-68
2021/09/23 14:24:47;;;;;;;6.35;5.85;;;;;;;17.21;67.10;99288.73;253841;1104;116350;-67
2021/09/23 14:29:50;;;;;;;12.33;5.77;;;;;;;17.18;67.18;99277.45;254021;1104;116022;-69
2021/09/23 14:34:54;;;;;;;7.85;5.88;;;;;;;17.13;67.23;99287.48;255575;1104;115874;-69
2021/09/23 14:39:58;;;;;;;14.67;6.83;;;;;;;17.15;66.93;99282.61;254052;1104;115713;-69
2021/09/23 14:45:02;;;;;;;10.88;6.50;;;;;;;17.12;67.28;99265.13;256342;1104;115500;-69
2021/09/23 14:50:06;;;;;;;9.65;6.33;;;;;;;17.10;67.30;99248.48;256811;1104;115260;-68
2021/09/23 14:55:11;;;;;;;9.48;6.20;;;;;;;17.15;67.41;99234.93;256020;1104;115254;-68
2021/09/23 15:00:15;;;;;;;10.40;6.93;;;;;;;17.13;67.23;99230.92;254989;1104;115194;-69
2021/09/23 15:05:21;;;;;;;8.93;6.10;;;;;;;17.12;67.49;99224.73;255493;1104;116566;-67
2021/09/23 15:10:26;;;;;;;4.65;4.33;;;;;;;17.11;67.46;99219.66;254196;1100;115445;-72
2021/09/23 15:15:29;;;;;;;8.70;5.93;;;;;;;17.05;67.46;99212.73;254342;1104;115524;-72
2021/09/23 15:20:35;;;;;;;7.93;5.33;;;;;;;16.93;67.41;99206.97;254612;1104;115183;-71
2021/09/23 15:25:38;;;;;;;6.75;5.23;;;;;;;16.84;67.50;99199.52;254000;1104;116092;-71
2021/09/23 15:30:41;;;;;;;6.48;5.78;;;;;;;16.80;67.22;99186.95;253490;1104;117122;-71
2021/09/23 15:35:44;;;;;;;11.80;6.80;;;;;;;16.71;67.76;99178.71;254276;1104;116124;-71
2021/09/23 15:40:48;;;;;;;11.35;6.95;;;;;;;16.66;67.67;99170.70;253945;1104;116031;-70
2021/09/23 15:45:51;;;;;;;11.40;6.18;;;;;;;16.56;67.75;99140.38;253686;1104;116116;-70
2021/09/23 15:50:55;;;;;;;5.65;4.98;;;;;;;16.46;67.97;99128.67;255820;1104;115543;-70
2021/09/23 15:55:58;;;;;;;10.05;5.23;;;;;;;16.43;68.03;99113.11;254418;1104;115626;-73
2021/09/23 16:01:02;;;;;;;6.03;5.53;;;;;;;16.40;68.25;99127.13;253662;1104;116264;-72
2021/09/23 16:06:06;;;;;;;15.25;5.93;;;;;;;16.34;68.47;99136.34;255388;1104;116010;-72
2021/09/23 16:11:10;;;;;;;6.23;4.70;;;;;;;16.26;68.66;99112.77;253835;1104;116807;-72
2021/09/23 16:16:13;;;;;;;6.65;5.55;;;;;;;16.22;68.59;99100.97;254890;1104;115756;-70
2021/09/23 16:21:20;;;;;;;11.90;6.40;;;;;;;16.14;68.91;99094.36;253546;1104;115775;-70
2021/09/23 16:26:23;;;;;;;5.50;4.70;;;;;;;16.09;69.07;99074.80;253506;1104;115633;-70
2021/09/23 16:31:26;;;;;;;6.73;5.28;;;;;;;16.04;68.83;99067.58;253981;1104;114700;-69
2021/09/23 16:36:30;;;;;;;7.45;6.35;;;;;;;16.01;69.04;99051.22;255454;1104;115359;-69
2021/09/23 16:41:36;;;;;;;10.90;5.78;;;;;;;15.93;69.03;99049.16;254006;1104;115671;-68
2021/09/23 16:46:39;;;;;;;6.80;4.53;;;;;;;15.88;69.23;99038.49;253716;1104;119571;-69
2021/09/23 16:51:43;;;;;;;13.78;7.23;;;;;;;15.82;69.12;99032.37;254080;1104;116062;-69
2021/09/23 16:56:46;;;;;;;12.18;8.08;;;;;;;15.76;69.48;99010.13;257095;1104;115437;-68
2021/09/23 17:01:49;;;;;;;11.85;8.80;;;;;;;15.74;69.46;98990.80;254085;1104;117409;-68
2021/09/23 17:06:53;;;;;;;9.40;8.38;;;;;;;15.71;69.48;98972.55;253742;1104;115622;-68
2021/09/23 17:11:56;;;;;;;10.88;6.78;;;;;;;15.68;69.37;98962.38;253658;1104;115777;-69
2021/09/23 17:16:59;;;;;;;8.48;7.68;;;;;;;15.68;69.98;98946.26;253905;1104;116242;-68
2021/09/23 17:22:02;;;;;;;8.70;7.80;;;;;;;15.66;70.23;98915.39;253887;1104;115719;-69
2021/09/23 17:27:06;;;;;;;7.95;6.65;;;;;;;15.64;69.99;98896.87;253644;1104;115917;-68
2021/09/23 17:32:10;;;;;;;12.90;8.23;;;;;;;15.62;70.32;98890.98;253677;1104;115979;-68
2021/09/23 17:37:13;;;;;;;10.60;7.90;;;;;;;15.59;70.08;98888.90;253996;1104;115958;-68
2021/09/23 17:42:17;;;;;;;17.23;8.45;;;;;;;15.57;70.63;98884.90;254818;1104;117039;-68
2021/09/23 17:47:20;;;;;;;18.75;8.43;;;;;;;15.56;70.37;98884.10;253791;1104;116242;-67
2021/09/23 17:52:24;;;;;;;10.93;7.20;;;;;;;15.56;70.33;98883.27;254069;1104;115900;-68
2021/09/23 17:57:27;;;;;;;9.28;7.30;;;;;;;15.56;70.57;98861.78;253437;1104;115072;-67
2021/09/23 18:02:31;;;;;;;8.20;6.13;;;;;;;15.54;70.51;98848.63;253652;1104;116206;-69
2021/09/23 18:07:37;;;;;;;7.60;6.70;;;;;;;15.55;70.55;98839.49;255777;1103;115218;-68
2021/09/23 18:12:41;;;;;;;7.43;5.60;;;;;;;15.57;70.44;98829.29;253597;1099;114965;-69
2021/09/23 18:17:46;;;;;;;7.58;5.78;;;;;;;15.60;70.83;98823.31;253776;1104;115949;-69
2021/09/23 18:22:50;;;;;;;8.73;6.40;;;;;;;15.61;70.31;98837.54;253663;1099;115263;-70
2021/09/23 18:27:54;;;;;;;12.88;6.95;;;;;;;15.60;70.51;98826.00;255010;1099;115027;-70
2021/09/23 18:32:57;;;;;;;6.67;6.07;;;;;;;15.59;70.42;98818.26;253918;1104;115290;-68
2021/09/23 18:38:02;;;;;;;8.15;6.10;;;;;;;15.56;70.63;98822.31;253680;1100;114878;-70
2021/09/23 18:43:05;;;;;;;13.63;5.73;;;;;;;15.53;71.01;98820.17;254929;1104;115244;-69
2021/09/23 18:48:09;;;;;;;10.40;5.65;;;;;;;15.47;71.32;98800.64;255299;1104;115605;-69
2021/09/23 18:53:16;;;;;;;10.65;6.80;;;;;;;15.40;71.34;98788.65;257186;1104;115567;-69
2021/09/23 18:58:20;;;;;;;;;;;;;;;15.30;71.81;98778.03;253724;1104;115506;-68
2021/09/23 19:03:24;;;;;;;7.75;4.98;;;;;;;15.16;71.87;98770.70;255967;1104;103019;-69
2021/09/23 19:08:28;;;;;;;5.88;5.30;;;;;;;15.09;72.27;98775.61;255511;1104;114947;-69
2021/09/23 19:13:31;;;;;;;10.15;5.55;;;;;;;15.04;72.96;98764.14;253868;1104;115437;-69
2021/09/23 19:18:34;;;;;;;6.70;5.13;;;;;;;15.03;72.79;98741.06;253770;1104;114945;-69
2021/09/23 19:23:38;;;;;;;7.63;5.00;;;;;;;15.01;72.82;98733.30;253810;1104;114876;-68
2021/09/23 19:28:42;;;;;;;7.13;5.15;;;;;;;15.02;73.56;98729.53;253891;1104;115363;-69
2021/09/23 19:33:45;;;;;;;7.03;5.07;;;;;;;15.02;73.32;98731.42;254166;1100;115071;-69
2021/09/23 19:38:49;;;;;;;8.80;5.73;;;;;;;15.01;73.40;98727.94;253567;1104;115511;-69
2021/09/23 19:43:53;;;;;;;7.70;5.43;;;;;;;15.05;73.21;98720.11;253561;1104;115347;-72
2021/09/23 19:48:55;;;;;;;6.75;5.40;;;;;;;15.08;73.05;98701.55;253937;1104;116110;-70
2021/09/23 19:54:05;;;;;;;4.87;4.47;;;;;;;15.10;73.12;98696.69;253802;1100;119639;-71
2021/09/23 19:59:08;;;;;;;8.03;5.13;;;;;;;15.14;73.48;98684.29;254108;1104;116314;-69
2021/09/23 20:04:11;;;;;;;6.25;4.03;;;;;;;15.10;73.25;98671.73;253621;1104;116669;-70
2021/09/23 20:09:14;;;;;;;7.60;4.55;;;;;;;15.05;73.22;98663.75;253709;1104;116413;-70
2021/09/23 20:14:18;;;;;;;4.60;4.20;;;;;;;15.03;73.37;98641.77;253918;1104;115936;-70
2021/09/23 20:19:23;;;;;;;10.93;5.23;;;;;;;15.03;73.52;98639.09;253851;1104;115785;-70
2021/09/23 20:24:27;;;;;;;5.80;4.45;;;;;;;15.04;73.56;98640.68;253889;1100;116076;-70
2021/09/23 20:29:31;;;;;;;8.80;5.13;;;;;;;15.01;73.93;98655.48;255557;1104;116222;-68
2021/09/23 20:34:36;;;;;;;6.28;4.53;;;;;;;15.00;73.92;98656.56;256965;1104;115558;-68
2021/09/23 20:39:40;;;;;;;4.43;3.83;;;;;;;14.96;74.33;98660.94;257110;1104;116711;-69
2021/09/23 20:44:44;;;;;;;7.58;4.95;;;;;;;14.98;74.16;98660.65;257113;1104;115931;-71
2021/09/23 20:49:48;;;;;;;6.00;5.23;;;;;;;14.92;74.36;98665.28;257070;1104;117389;-72
2021/09/23 20:54:53;;;;;;;9.73;3.73;;;;;;;14.86;74.24;98652.22;255731;1104;117139;-68
2021/09/23 20:59:59;;;;;;;6.30;5.03;;;;;;;14.74;74.77;98655.31;253788;1104;115467;-69
2021/09/23 21:05:03;;;;;;;9.53;5.43;;;;;;;14.63;75.17;98635.09;254333;1104;115174;-71
2021/09/23 21:10:07;;;;;;;5.78;4.78;;;;;;;14.58;75.20;98624.42;255021;1104;115293;-67
2021/09/23 21:15:12;;;;;;;9.95;4.83;;;;;;;14.52;75.36;98604.91;254319;1104;115359;-67
2021/09/23 21:20:15;;;;;;;5.33;4.13;;;;;;;14.41;75.58;98598.86;253703;1104;116428;-66
2021/09/23 21:25:19;;;;;;;7.15;5.48;;;;;;;14.37;76.21;98594.36;253709;1104;115159;-67
2021/09/23 21:30:22;;;;;;;6.30;4.98;;;;;;;14.38;76.02;98577.16;253579;1104;114936;-67
2021/09/23 21:35:25;;;;;;;6.30;4.58;;;;;;;14.35;76.57;98569.72;253737;1104;114938;-67
2021/09/23 21:40:29;;;;;;;5.75;3.95;;;;;;;14.39;76.30;98558.11;253784;1104;114526;-67
2021/09/23 21:45:33;;;;;;;7.18;4.80;;;;;;;14.43;76.41;98556.48;253845;1104;115076;-69
2021/09/23 21:50:35;;;;;;;8.70;4.60;;;;;;;14.45;76.36;98546.27;253660;1104;115173;-69
2021/09/23 21:55:39;;;;;;;8.00;4.50;;;;;;;14.44;76.35;98525.10;253835;1104;115225;-69
2021/09/23 22:00:47;;;;;;;5.60;4.43;;;;;;;14.44;76.48;98544.67;254464;1104;115191;-69
2021/09/23 22:05:52;;;;;;;7.68;4.35;;;;;;;14.51;76.13;98503.30;253805;1104;115102;-68
2021/09/23 22:10:56;;;;;;;11.15;4.38;;;;;;;14.51;76.42;98473.80;253640;1104;116756;-70
2021/09/23 22:15:59;;;;;;;4.30;3.23;;;;;;;14.49;75.80;98474.09;255948;1104;115321;-68
2021/09/23 22:21:04;;;;;;;5.93;3.88;;;;;;;14.57;75.85;98470.77;254139;1100;115674;-69
2021/09/23 22:26:07;;;;;;;3.35;3.05;;;;;;;14.64;75.92;98526.72;253881;1104;114927;-69
2021/09/23 22:31:10;;;;;;;6.68;3.88;;;;;;;14.51;75.56;98522.87;253607;1104;115001;-69
2021/09/23 22:36:16;;;;;;;5.07;3.57;;;;;;;14.43;76.19;98528.87;254806;1103;115047;-69
2021/09/23 22:41:20;;;;;;;6.33;3.80;;;;;;;14.38;76.39;98542.30;254618;1098;114616;-69
2021/09/23 22:46:23;;;;;;;2.48;2.30;;;;;;;14.32;76.52;98557.69;253781;1104;115302;-69
2021/09/23 22:51:28;;;;;;;2.78;2.58;;;;;;;14.26;76.13;98556.15;253820;1104;114809;-69
2021/09/23 22:56:31;;;;;;;3.65;1.73;;;;;;;14.23;75.95;98562.08;253632;1104;114939;-70
2021/09/23 23:01:34;;;;;;;4.68;1.83;;;;;;;14.16;75.99;98572.34;253860;1104;115719;-70